createdAt,value
2023-04-16T00:00:08.781Z,100963.43
2023-04-16T00:02:39.460Z,100963.09
2023-04-16T00:05:07.348Z,100966.94
2023-04-16T00:07:35.091Z,100965.08
2023-04-16T00:10:04.065Z,100966.52
2023-04-16T00:12:32.041Z,100968.43
2023-04-16T00:15:00.630Z,100971.98
2023-04-16T00:17:28.750Z,100973.33
2023-04-16T00:19:57.426Z,100975.95
2023-04-16T00:22:25.860Z,100973.14
2023-04-16T00:24:54.130Z,100975.58
2023-04-16T00:27:22.896Z,100975.59
2023-04-16T00:29:51.330Z,100976.38
2023-04-16T00:32:19.491Z,100977.40
2023-04-16T00:34:47.815Z,100977.10
2023-04-16T00:37:16.606Z,100975.89
2023-04-16T00:39:44.808Z,100979.00
2023-04-16T00:42:18.948Z,100980.19
2023-04-16T00:44:48.683Z,100977.95
2023-04-16T00:47:17.515Z,100980.17
2023-04-16T00:49:46.028Z,100982.42
2023-04-16T00:52:14.293Z,100986.05
2023-04-16T00:54:42.969Z,100983.23
2023-04-16T00:57:11.242Z,100979.64
2023-04-16T00:59:39.333Z,100981.40
2023-04-16T01:02:07.988Z,100985.04
2023-04-16T01:04:36.638Z,100984.54
2023-04-16T01:07:04.588Z,100986.11
2023-04-16T01:09:33.145Z,100989.05
2023-04-16T01:12:02.169Z,100991.54
2023-04-16T01:14:31.822Z,100990.11
2023-04-16T01:17:01.599Z,100994.86
2023-04-16T01:19:36.349Z,100993.95
2023-04-16T01:22:06.538Z,100995.72
2023-04-16T01:24:36.676Z,100997.44
2023-04-16T01:27:06.741Z,100999.63
2023-04-16T01:29:36.557Z,101001.63
2023-04-16T01:32:06.594Z,101003.56
2023-04-16T01:34:36.427Z,101004.62
2023-04-16T01:37:06.328Z,101004.78
2023-04-16T01:39:36.224Z,101004.74
2023-04-16T01:42:09.421Z,101006.02
2023-04-16T01:44:39.426Z,101007.21
2023-04-16T01:47:09.462Z,101006.20
2023-04-16T01:49:39.534Z,101010.60
2023-04-16T01:52:09.432Z,101010.73
2023-04-16T01:54:39.368Z,101008.23
2023-04-16T01:57:09.718Z,101013.19
2023-04-16T01:59:39.866Z,101012.50
2023-04-16T02:02:16.203Z,101013.25
2023-04-16T02:04:46.563Z,101014.97
2023-04-16T02:07:16.648Z,101017.10
2023-04-16T02:09:46.602Z,101016.60
2023-04-16T02:12:16.732Z,101016.94
2023-04-16T02:14:46.814Z,101017.66
2023-04-16T02:17:17.337Z,101017.88
2023-04-16T02:19:47.512Z,101018.89
2023-04-16T02:22:17.318Z,101022.80
2023-04-16T02:24:47.197Z,101025.46
2023-04-16T02:27:16.964Z,101024.93
2023-04-16T02:29:46.748Z,101027.04
2023-04-16T02:32:16.613Z,101028.98
2023-04-16T02:34:46.458Z,101031.95
2023-04-16T02:37:16.323Z,101030.37
2023-04-16T02:39:47.360Z,101033.73
2023-04-16T02:42:17.101Z,101033.22
2023-04-16T02:44:46.891Z,101036.74
2023-04-16T02:47:16.717Z,101035.48
2023-04-16T02:49:46.656Z,101035.80
2023-04-16T02:52:16.420Z,101036.70
2023-04-16T02:54:46.185Z,101038.30
2023-04-16T02:57:14.761Z,101039.55
2023-04-16T02:59:43.278Z,101037.59
2023-04-16T03:02:12.169Z,101034.08
2023-04-16T03:04:40.325Z,101037.97
2023-04-16T03:07:09.355Z,101039.42
2023-04-16T03:09:36.993Z,101041.69
2023-04-16T03:12:09.895Z,101044.45
2023-04-16T03:14:40.133Z,101044.60
2023-04-16T03:17:10.145Z,101048.42
2023-04-16T03:19:38.365Z,101046.83
2023-04-16T03:22:06.732Z,101047.45
2023-04-16T03:24:35.606Z,101048.41
2023-04-16T03:27:03.651Z,101052.98
2023-04-16T03:29:31.973Z,101053.09
2023-04-16T03:32:00.588Z,101053.23
2023-04-16T03:34:29.014Z,101054.27
2023-04-16T03:36:57.323Z,101056.39
2023-04-16T03:39:25.705Z,101056.68
2023-04-16T03:41:54.162Z,101059.56
2023-04-16T03:44:22.742Z,101058.15
2023-04-16T03:46:51.201Z,101060.69
2023-04-16T03:49:19.485Z,101064.50
2023-04-16T03:51:47.951Z,101062.88
2023-04-16T03:54:16.551Z,101066.89
2023-04-16T03:56:44.802Z,101071.86
2023-04-16T03:59:13.165Z,101078.06
2023-04-16T04:01:41.640Z,101080.45
2023-04-16T04:04:10.551Z,101088.83
2023-04-16T04:06:38.452Z,101089.00
2023-04-16T04:09:07.411Z,101091.34
2023-04-16T04:11:35.416Z,101091.11
2023-04-16T04:14:05.257Z,101093.66
2023-04-16T04:16:35.553Z,101096.09
2023-04-16T04:19:03.755Z,101098.71
2023-04-16T04:21:31.994Z,101103.41
2023-04-16T04:24:00.373Z,101106.19
2023-04-16T04:26:28.786Z,101103.91
2023-04-16T04:28:57.236Z,101109.70
2023-04-16T04:31:25.894Z,101107.91
2023-04-16T04:33:54.110Z,101111.42
2023-04-16T04:36:22.525Z,101114.71
2023-04-16T04:38:51.079Z,101113.14
2023-04-16T04:41:19.454Z,101114.95
2023-04-16T04:43:47.760Z,101115.10
2023-04-16T04:46:16.225Z,101121.98
2023-04-16T04:48:44.563Z,101121.37
2023-04-16T04:51:13.181Z,101123.36
2023-04-16T04:53:41.424Z,101126.67
2023-04-16T04:56:12.907Z,101129.45
2023-04-16T04:58:43.140Z,101124.94
2023-04-16T05:01:13.045Z,101125.65
2023-04-16T05:03:43.388Z,101135.16
2023-04-16T05:06:13.399Z,101135.06
2023-04-16T05:08:43.214Z,101137.53
2023-04-16T05:11:12.997Z,101141.79
2023-04-16T05:13:42.680Z,101146.05
2023-04-16T05:16:12.454Z,101149.20
2023-04-16T05:18:42.213Z,101150.95
2023-04-16T05:21:12.216Z,101156.34
2023-04-16T05:23:42.029Z,101161.31
2023-04-16T05:26:11.829Z,101161.90
2023-04-16T05:28:41.668Z,101164.66
2023-04-16T05:31:11.520Z,101165.55
2023-04-16T05:33:41.365Z,101166.75
2023-04-16T05:36:11.182Z,101169.64
2023-04-16T05:38:40.998Z,101169.09
2023-04-16T05:41:10.830Z,101170.05
2023-04-16T05:43:40.606Z,101170.05
2023-04-16T05:46:11.033Z,101170.35
2023-04-16T05:48:40.807Z,101175.52
2023-04-16T05:51:10.685Z,101173.14
2023-04-16T05:53:40.979Z,101176.09
2023-04-16T05:56:10.734Z,101177.23
2023-04-16T05:58:40.746Z,101181.30
2023-04-16T06:01:09.231Z,101181.10
2023-04-16T06:03:37.416Z,101183.48
2023-04-16T06:06:06.517Z,101187.55
2023-04-16T06:08:34.279Z,101186.34
2023-04-16T06:11:03.679Z,101196.41
2023-04-16T06:13:31.037Z,101194.04
2023-04-16T06:15:59.660Z,101199.35
2023-04-16T06:18:27.933Z,101199.84
2023-04-16T06:20:56.528Z,101207.08
2023-04-16T06:23:25.014Z,101207.33
2023-04-16T06:25:53.216Z,101210.80
2023-04-16T06:28:21.918Z,101212.71
2023-04-16T06:30:50.061Z,101214.57
2023-04-16T06:33:18.527Z,101213.45
2023-04-16T06:35:48.181Z,101217.40
2023-04-16T06:38:16.197Z,101218.67
2023-04-16T06:40:43.938Z,101218.13
2023-04-16T06:43:12.382Z,101215.48
2023-04-16T06:45:40.642Z,101216.42
2023-04-16T06:48:09.226Z,101219.70
2023-04-16T06:50:37.787Z,101219.73
2023-04-16T06:53:06.079Z,101219.00
2023-04-16T06:55:34.405Z,101222.65
2023-04-16T06:58:03.668Z,101224.09
2023-04-16T07:00:31.293Z,101228.42
2023-04-16T07:03:02.189Z,101229.06
2023-04-16T07:05:32.167Z,101233.27
2023-04-16T07:08:02.006Z,101233.88
2023-04-16T07:10:31.832Z,101235.87
2023-04-16T07:13:01.756Z,101238.52
2023-04-16T07:15:31.626Z,101242.91
2023-04-16T07:18:01.431Z,101242.64
2023-04-16T07:20:31.371Z,101243.67
2023-04-16T07:23:01.198Z,101245.27
2023-04-16T07:25:30.986Z,101249.31
2023-04-16T07:28:00.739Z,101253.65
2023-04-16T07:30:34.204Z,101249.30
2023-04-16T07:33:04.607Z,101254.56
2023-04-16T07:35:34.599Z,101258.57
2023-04-16T07:38:04.450Z,101260.72
2023-04-16T07:40:34.267Z,101263.95
2023-04-16T07:43:04.093Z,101263.13
2023-04-16T07:45:33.931Z,101268.35
2023-04-16T07:48:03.993Z,101268.24
2023-04-16T07:50:33.770Z,101273.83
2023-04-16T07:53:03.804Z,101275.14
2023-04-16T07:55:33.643Z,101275.77
2023-04-16T07:58:03.466Z,101280.25
2023-04-16T08:00:33.390Z,101284.44
2023-04-16T08:03:04.119Z,101281.84
2023-04-16T08:05:33.993Z,101281.69
2023-04-16T08:08:03.999Z,101287.02
2023-04-16T08:10:33.994Z,101290.33
2023-04-16T08:13:03.806Z,101292.24
2023-04-16T08:15:33.672Z,101294.20
2023-04-16T08:18:05.917Z,101293.30
2023-04-16T08:20:35.938Z,101295.98
2023-04-16T08:23:06.111Z,101299.00
2023-04-16T08:25:36.489Z,101303.09
2023-04-16T08:28:06.399Z,101303.84
2023-04-16T08:30:36.575Z,101306.98
2023-04-16T08:33:06.478Z,101309.17
2023-04-16T08:35:36.311Z,101308.14
2023-04-16T08:38:07.509Z,101311.71
2023-04-16T08:40:40.292Z,101314.83
2023-04-16T08:43:13.673Z,101317.92
2023-04-16T08:45:47.324Z,101319.76
2023-04-16T08:48:21.335Z,101325.45
2023-04-16T08:50:55.574Z,101326.98
2023-04-16T08:53:39.181Z,101328.75
2023-04-16T08:56:11.586Z,101335.61
2023-04-16T08:58:42.160Z,101331.92
2023-04-16T09:01:12.493Z,101333.27
2023-04-16T09:03:43.321Z,101335.19
2023-04-16T09:06:14.738Z,101338.42
2023-04-16T09:08:46.379Z,101341.44
2023-04-16T09:11:20.455Z,101344.85
2023-04-16T09:13:50.331Z,101340.50
2023-04-16T09:16:21.224Z,101345.32
2023-04-16T09:18:52.501Z,101349.76
2023-04-16T09:21:24.149Z,101351.63
2023-04-16T09:23:54.103Z,101356.19
2023-04-16T09:26:24.489Z,101356.22
2023-04-16T09:28:55.584Z,101361.16
2023-04-16T09:31:24.234Z,101365.04
2023-04-16T09:34:10.363Z,101366.80
2023-04-16T09:36:38.510Z,101367.33
2023-04-16T09:39:07.669Z,101368.28
2023-04-16T09:41:36.065Z,101368.88
2023-04-16T09:44:05.621Z,101372.68
2023-04-16T09:46:42.975Z,101372.27
2023-04-16T09:49:18.647Z,101377.91
2023-04-16T09:51:52.673Z,101373.95
2023-04-16T09:54:22.435Z,101378.73
2023-04-16T09:56:57.620Z,101376.13
2023-04-16T09:59:31.167Z,101375.69
2023-04-16T10:02:14.476Z,101372.25
2023-04-16T10:04:53.277Z,101378.70
2023-04-16T10:07:22.382Z,101375.05
2023-04-16T10:09:53.730Z,101379.89
2023-04-16T10:12:23.678Z,101382.59
2023-04-16T10:14:53.661Z,101388.09
2023-04-16T10:17:25.017Z,101390.27
2023-04-16T10:19:56.150Z,101389.40
2023-04-16T10:22:23.576Z,101387.92
2023-04-16T10:24:53.804Z,101386.95
2023-04-16T10:27:24.510Z,101386.31
2023-04-16T10:29:54.796Z,101387.41
2023-04-16T10:32:28.571Z,101392.44
2023-04-16T10:34:58.690Z,101392.65
2023-04-16T10:37:32.447Z,101388.64
2023-04-16T10:40:26.562Z,101389.91
2023-04-16T10:42:57.871Z,101391.74
2023-04-16T10:45:37.387Z,101395.62
2023-04-16T10:48:11.717Z,101396.31
2023-04-16T10:50:41.574Z,101396.44
2023-04-16T10:53:27.608Z,101399.48
2023-04-16T10:56:04.362Z,101405.52
2023-04-16T10:58:36.636Z,101406.86
2023-04-16T11:01:14.712Z,101408.38
2023-04-16T11:03:47.772Z,101406.48
2023-04-16T11:06:26.037Z,101407.74
2023-04-16T11:08:55.794Z,101408.27
2023-04-16T11:11:26.539Z,101408.86
2023-04-16T11:13:57.083Z,101411.48
2023-04-16T11:16:27.573Z,101416.64
2023-04-16T11:18:57.656Z,101416.19
2023-04-16T11:21:28.606Z,101416.61
2023-04-16T11:23:58.322Z,101419.12
2023-04-16T11:26:30.963Z,101420.06
2023-04-16T11:29:00.970Z,101418.33
2023-04-16T11:31:31.208Z,101421.45
2023-04-16T11:34:00.142Z,101421.45
2023-04-16T11:36:28.079Z,101423.38
2023-04-16T11:39:03.551Z,101426.02
2023-04-16T11:41:33.267Z,101430.70
2023-04-16T11:44:27.953Z,101426.57
2023-04-16T11:46:57.731Z,101427.63
2023-04-16T11:49:29.575Z,101430.85
2023-04-16T11:52:00.793Z,101436.20
2023-04-16T11:54:34.717Z,101435.65
2023-04-16T11:57:05.005Z,101434.67
2023-04-16T11:59:33.407Z,101432.29
2023-04-16T12:02:01.471Z,101429.39
2023-04-16T12:04:29.933Z,101430.59
2023-04-16T12:07:12.525Z,101431.23
2023-04-16T12:09:44.099Z,101433.02
2023-04-16T12:12:32.528Z,101436.83
2023-04-16T12:15:04.569Z,101434.83
2023-04-16T12:17:36.511Z,101437.87
2023-04-16T12:20:13.566Z,101439.48
2023-04-16T12:22:49.620Z,101438.31
2023-04-16T12:25:19.595Z,101436.60
2023-04-16T12:27:53.784Z,101440.55
2023-04-16T12:30:26.411Z,101441.99
2023-04-16T12:33:17.848Z,101440.53
2023-04-16T12:35:47.910Z,101443.41
2023-04-16T12:38:16.934Z,101448.43
2023-04-16T12:40:44.908Z,101445.26
2023-04-16T12:43:13.591Z,101446.06
2023-04-16T12:45:41.355Z,101450.11
2023-04-16T12:48:10.214Z,101444.14
2023-04-16T12:50:39.679Z,101443.54
2023-04-16T12:53:06.656Z,101445.25
2023-04-16T12:55:35.617Z,101443.77
2023-04-16T12:58:03.522Z,101446.93
2023-04-16T13:00:32.044Z,101447.84
2023-04-16T13:03:00.562Z,101448.18
2023-04-16T13:05:28.873Z,101458.95
2023-04-16T13:07:57.269Z,101458.96
2023-04-16T13:10:27.799Z,101458.30
2023-04-16T13:12:57.072Z,101464.21
2023-04-16T13:15:25.536Z,101467.52
2023-04-16T13:17:53.852Z,101469.31
2023-04-16T13:20:24.407Z,101470.34
2023-04-16T13:22:54.473Z,101474.11
2023-04-16T13:25:24.524Z,101474.38
2023-04-16T13:27:54.322Z,101480.41
2023-04-16T13:30:25.365Z,101479.95
2023-04-16T13:32:56.551Z,101481.02
2023-04-16T13:35:27.417Z,101480.79
2023-04-16T13:37:57.129Z,101482.27
2023-04-16T13:40:26.894Z,101482.48
2023-04-16T13:42:56.754Z,101483.90
2023-04-16T13:45:27.880Z,101485.61
2023-04-16T13:47:57.644Z,101486.03
2023-04-16T13:50:27.945Z,101481.50
2023-04-16T13:52:57.802Z,101482.08
2023-04-16T13:55:27.783Z,101480.13
2023-04-16T13:57:58.227Z,101481.24
2023-04-16T14:00:28.070Z,101478.52
2023-04-16T14:02:58.151Z,101482.37
2023-04-16T14:05:28.072Z,101476.27
2023-04-16T14:07:57.776Z,101479.58
2023-04-16T14:10:27.643Z,101478.11
2023-04-16T14:12:57.784Z,101483.16
2023-04-16T14:15:29.956Z,101480.60
2023-04-16T14:17:59.026Z,101483.02
2023-04-16T14:20:27.787Z,101485.38
2023-04-16T14:22:56.020Z,101482.05
2023-04-16T14:25:24.554Z,101483.80
2023-04-16T14:27:53.234Z,101481.21
2023-04-16T14:30:21.191Z,101487.40
2023-04-16T14:32:49.537Z,101488.55
2023-04-16T14:35:18.209Z,101489.89
2023-04-16T14:37:47.112Z,101490.02
2023-04-16T14:40:14.881Z,101487.17
2023-04-16T14:42:43.306Z,101487.40
2023-04-16T14:45:12.795Z,101485.54
2023-04-16T14:47:45.910Z,101488.26
2023-04-16T14:50:16.045Z,101488.06
2023-04-16T14:52:46.187Z,101488.67
2023-04-16T14:55:16.060Z,101484.50
2023-04-16T14:57:46.415Z,101487.86
2023-04-16T15:00:18.609Z,101488.64
2023-04-16T15:02:48.572Z,101487.69
2023-04-16T15:05:18.414Z,101492.36
2023-04-16T15:07:48.213Z,101493.55
2023-04-16T15:10:18.802Z,101501.78
2023-04-16T15:12:48.548Z,101502.65
2023-04-16T15:15:18.448Z,101501.20
2023-04-16T15:17:47.212Z,101505.46
2023-04-16T15:20:15.856Z,101501.40
2023-04-16T15:22:43.629Z,101511.67
2023-04-16T15:25:12.676Z,101509.13
2023-04-16T15:27:40.805Z,101512.79
2023-04-16T15:30:10.085Z,101517.17
2023-04-16T15:32:38.292Z,101520.50
2023-04-16T15:35:08.632Z,101522.61
2023-04-16T15:37:40.881Z,101527.08
2023-04-16T15:40:10.991Z,101527.05
2023-04-16T15:42:40.784Z,101528.38
2023-04-16T15:45:10.933Z,101529.80
2023-04-16T15:47:42.027Z,101530.55
2023-04-16T15:50:11.970Z,101532.77
2023-04-16T15:52:42.380Z,101531.46
2023-04-16T15:55:12.849Z,101532.56
2023-04-16T15:57:42.700Z,101530.36
2023-04-16T16:00:13.844Z,101529.52
2023-04-16T16:02:46.885Z,101533.98
2023-04-16T16:05:17.488Z,101533.92
2023-04-16T16:07:47.421Z,101537.50
2023-04-16T16:10:17.501Z,101534.64
2023-04-16T16:12:48.084Z,101537.59
2023-04-16T16:15:18.238Z,101536.18
2023-04-16T16:17:48.295Z,101541.84
2023-04-16T16:20:18.199Z,101537.71
2023-04-16T16:22:48.363Z,101539.38
2023-04-16T16:25:18.924Z,101542.92
2023-04-16T16:27:48.633Z,101544.16
2023-04-16T16:30:18.732Z,101545.14
2023-04-16T16:32:49.125Z,101551.95
2023-04-16T16:35:19.634Z,101550.84
2023-04-16T16:37:49.640Z,101547.84
2023-04-16T16:40:19.712Z,101554.04
2023-04-16T16:42:49.609Z,101552.17
2023-04-16T16:45:19.727Z,101550.64
2023-04-16T16:47:49.484Z,101555.27
2023-04-16T16:50:19.564Z,101558.04
2023-04-16T16:52:49.582Z,101557.92
2023-04-16T16:55:20.899Z,101561.03
2023-04-16T16:57:51.363Z,101559.66
2023-04-16T17:00:22.192Z,101562.67
2023-04-16T17:02:52.842Z,101562.17
2023-04-16T17:05:21.088Z,101565.53
2023-04-16T17:07:49.090Z,101571.67
2023-04-16T17:10:20.978Z,101570.93
2023-04-16T17:12:51.018Z,101575.56
2023-04-16T17:15:21.967Z,101578.65
2023-04-16T17:17:52.065Z,101580.82
2023-04-16T17:20:22.029Z,101585.30
2023-04-16T17:22:51.895Z,101589.28
2023-04-16T17:25:21.720Z,101590.30
2023-04-16T17:27:51.566Z,101591.05
2023-04-16T17:30:23.768Z,101595.81
2023-04-16T17:32:54.111Z,101598.08
2023-04-16T17:35:25.051Z,101599.80
2023-04-16T17:37:54.827Z,101602.55
2023-04-16T17:40:24.743Z,101604.09
2023-04-16T17:42:54.531Z,101609.02
2023-04-16T17:45:24.478Z,101611.66
2023-04-16T17:47:54.363Z,101611.42
2023-04-16T17:50:26.343Z,101617.31
2023-04-16T17:52:58.282Z,101617.35
2023-04-16T17:55:28.298Z,101620.38
2023-04-16T17:57:58.113Z,101621.10
2023-04-16T18:00:26.646Z,101623.36
2023-04-16T18:02:56.906Z,101629.70
2023-04-16T18:05:26.530Z,101631.48
2023-04-16T18:07:55.627Z,101633.77
2023-04-16T18:10:23.399Z,101634.82
2023-04-16T18:12:51.875Z,101639.56
2023-04-16T18:15:20.070Z,101641.73
2023-04-16T18:17:48.578Z,101643.15
2023-04-16T18:20:19.484Z,101644.80
2023-04-16T18:22:49.304Z,101647.66
2023-04-16T18:25:26.150Z,101651.98
2023-04-16T18:28:04.051Z,101655.85
2023-04-16T18:30:34.684Z,101655.03
2023-04-16T18:35:40.651Z,101661.23
2023-04-16T18:38:09.112Z,101664.66
2023-04-16T18:40:37.813Z,101669.95
2023-04-16T18:43:05.879Z,101669.39
2023-04-16T18:45:34.570Z,101680.02
2023-04-16T18:48:04.167Z,101681.59
2023-04-16T18:50:31.120Z,101683.35
2023-04-16T18:52:59.933Z,101688.61
2023-04-16T18:55:28.038Z,101690.80
2023-04-16T18:57:57.056Z,101689.48
2023-04-16T19:00:24.986Z,101689.55
2023-04-16T19:02:53.842Z,101691.00
2023-04-16T19:05:23.127Z,101690.33
2023-04-16T19:07:53.013Z,101691.55
2023-04-16T19:10:22.044Z,101693.63
2023-04-16T19:12:51.885Z,101692.58
2023-04-16T19:15:20.459Z,101697.01
2023-04-16T19:17:48.865Z,101697.17
2023-04-16T19:20:17.542Z,101699.20
2023-04-16T19:22:46.952Z,101696.82
2023-04-16T19:25:14.261Z,101698.64
2023-04-16T19:27:42.806Z,101701.24
2023-04-16T19:30:11.754Z,101701.95
2023-04-16T19:32:39.646Z,101700.18
2023-04-16T19:35:08.772Z,101701.25
2023-04-16T19:37:36.583Z,101703.45
2023-04-16T19:40:08.600Z,101703.25
2023-04-16T19:42:36.796Z,101706.84
2023-04-16T19:45:05.898Z,101705.75
2023-04-16T19:47:33.185Z,101709.23
2023-04-16T19:50:02.115Z,101709.51
2023-04-16T19:52:29.973Z,101708.62
2023-04-16T19:54:58.390Z,101711.43
2023-04-16T19:57:26.863Z,101710.23
2023-04-16T19:59:55.571Z,101715.45
2023-04-16T20:02:24.360Z,101711.83
2023-04-16T20:04:53.125Z,101712.92
2023-04-16T20:07:20.717Z,101715.26
2023-04-16T20:09:49.369Z,101717.09
2023-04-16T20:12:18.697Z,101715.84
2023-04-16T20:14:47.326Z,101717.98
2023-04-16T20:17:19.650Z,101721.81
2023-04-16T20:19:51.288Z,101722.94
2023-04-16T20:22:21.216Z,101724.49
2023-04-16T20:24:55.158Z,101721.80
2023-04-16T20:27:25.013Z,101721.49
2023-04-16T20:29:54.837Z,101719.70
2023-04-16T20:32:26.674Z,101721.63
2023-04-16T20:34:57.708Z,101720.30
2023-04-16T20:37:31.270Z,101728.05
2023-04-16T20:40:01.028Z,101730.94
2023-04-16T20:42:32.270Z,101732.46
2023-04-16T20:45:02.220Z,101728.60
2023-04-16T20:47:34.583Z,101734.30
2023-04-16T20:50:05.351Z,101734.39
2023-04-16T20:52:36.470Z,101737.83
2023-04-16T20:55:08.039Z,101737.75
2023-04-16T20:57:37.930Z,101739.08
2023-04-16T21:00:12.094Z,101735.89
2023-04-16T21:02:43.379Z,101739.71
2023-04-16T21:05:14.487Z,101739.48
2023-04-16T21:07:42.346Z,101739.83
2023-04-16T21:10:11.291Z,101742.77
2023-04-16T21:12:38.979Z,101740.89
2023-04-16T21:15:07.874Z,101739.66
2023-04-16T21:17:35.831Z,101745.47
2023-04-16T21:20:06.968Z,101747.20
2023-04-16T21:22:36.857Z,101745.52
2023-04-16T21:25:07.504Z,101741.33
2023-04-16T21:27:37.289Z,101744.94
2023-04-16T21:30:08.483Z,101745.73
2023-04-16T21:32:35.691Z,101743.17
2023-04-16T21:35:06.844Z,101743.27
2023-04-16T21:37:37.469Z,101744.96
2023-04-16T21:40:08.640Z,101742.73
2023-04-16T21:42:39.879Z,101742.35
2023-04-16T21:45:11.133Z,101742.20
2023-04-16T21:47:41.146Z,101742.91
2023-04-16T21:50:11.952Z,101741.23
2023-04-16T21:52:46.083Z,101742.59
2023-04-16T21:55:16.021Z,101743.48
2023-04-16T21:57:46.117Z,101742.88
2023-04-16T22:00:17.390Z,101743.98
2023-04-16T22:02:47.276Z,101743.20
2023-04-16T22:05:15.912Z,101745.42
2023-04-16T22:07:43.993Z,101744.13
2023-04-16T22:10:14.862Z,101744.82
2023-04-16T22:12:45.770Z,101748.61
2023-04-16T22:15:15.604Z,101748.83
2023-04-16T22:17:45.503Z,101751.55
2023-04-16T22:20:15.920Z,101751.92
2023-04-16T22:22:46.502Z,101753.46
2023-04-16T22:25:16.519Z,101753.59
2023-04-16T22:27:46.279Z,101754.85
2023-04-16T22:30:16.420Z,101756.27
2023-04-16T22:32:46.297Z,101752.31
2023-04-16T22:35:17.015Z,101755.10
2023-04-16T22:37:46.819Z,101759.30
2023-04-16T22:40:16.831Z,101760.27
2023-04-16T22:42:47.427Z,101762.61
2023-04-16T22:45:17.476Z,101762.16
2023-04-16T22:47:47.267Z,101757.52
2023-04-16T22:50:17.447Z,101763.08
2023-04-16T22:52:47.268Z,101763.48
2023-04-16T22:55:17.092Z,101759.08
2023-04-16T22:57:47.431Z,101757.59
2023-04-16T23:00:18.274Z,101756.89
2023-04-16T23:02:48.115Z,101756.66
2023-04-16T23:05:17.886Z,101757.06
2023-04-16T23:07:47.693Z,101757.39
2023-04-16T23:10:16.668Z,101758.73
2023-04-16T23:12:44.636Z,101758.23
2023-04-16T23:15:12.957Z,101757.48
2023-04-16T23:17:41.641Z,101759.56
2023-04-16T23:20:12.100Z,101762.04
2023-04-16T23:22:41.549Z,101761.31
2023-04-16T23:25:10.226Z,101764.36
2023-04-16T23:27:38.572Z,101765.42
2023-04-16T23:30:07.526Z,101763.38
2023-04-16T23:32:35.328Z,101764.77
2023-04-16T23:35:03.523Z,101761.75
2023-04-16T23:37:31.854Z,101765.34
2023-04-16T23:40:00.480Z,101759.79
2023-04-16T23:42:29.028Z,101764.80
2023-04-16T23:44:57.381Z,101759.38
2023-04-16T23:47:25.632Z,101760.89
2023-04-16T23:49:54.076Z,101761.52
2023-04-16T23:52:22.518Z,101763.86
2023-04-16T23:54:51.209Z,101763.45
2023-04-16T23:57:19.294Z,101761.82
2023-04-16T23:59:47.767Z,101761.71
